createdAt,value
2022-08-16T00:01:24.413Z,49.42
2022-08-16T00:03:53.814Z,49.49
2022-08-16T00:06:22.487Z,49.59
2022-08-16T00:08:50.145Z,49.71
2022-08-16T00:11:21.371Z,49.45
2022-08-16T00:13:54.040Z,49.53
2022-08-16T00:17:05.459Z,49.60
2022-08-16T00:19:14.832Z,49.61
2022-08-16T00:21:43.483Z,49.67
2022-08-16T00:24:12.655Z,49.68
2022-08-16T00:26:45.303Z,49.79
2022-08-16T00:29:16.073Z,49.60
2022-08-16T00:32:00.609Z,49.67
2022-08-16T00:34:44.637Z,49.32
2022-08-16T00:37:57.624Z,49.66
2022-08-16T00:40:34.550Z,49.52
2022-08-16T00:43:11.779Z,49.92
2022-08-16T00:46:33.224Z,49.68
2022-08-16T00:48:54.975Z,49.96
2022-08-16T00:51:26.692Z,50.30
2022-08-16T00:53:57.155Z,50.09
2022-08-16T00:56:56.432Z,50.17
2022-08-16T00:59:21.010Z,50.01
2022-08-16T01:01:52.066Z,49.79
2022-08-16T01:04:28.909Z,50.18
2022-08-16T01:07:02.785Z,50.07
2022-08-16T01:09:38.572Z,50.06
2022-08-16T01:12:11.710Z,49.85
2022-08-16T01:14:59.008Z,49.99
2022-08-16T01:17:28.881Z,49.83
2022-08-16T01:20:24.113Z,50.06
2022-08-16T01:23:10.543Z,49.73
2022-08-16T01:25:44.143Z,49.61
2022-08-16T01:28:19.655Z,50.23
2022-08-16T01:30:53.468Z,50.28
2022-08-16T01:33:22.441Z,50.21
2022-08-16T01:35:57.001Z,49.97
2022-08-16T01:38:35.339Z,50.20
2022-08-16T01:41:10.708Z,49.91
2022-08-16T01:43:40.707Z,50.39
2022-08-16T01:46:38.204Z,50.26
2022-08-16T01:49:43.216Z,50.29
2022-08-16T01:52:29.253Z,49.98
2022-08-16T01:55:10.625Z,50.28
2022-08-16T01:57:39.052Z,50.45
2022-08-16T02:00:19.282Z,50.07
2022-08-16T02:02:52.407Z,50.08
2022-08-16T02:05:23.597Z,50.16
2022-08-16T02:07:52.289Z,49.79
2022-08-16T02:10:21.746Z,49.99
2022-08-16T02:12:59.794Z,49.94
2022-08-16T02:15:30.170Z,50.04
2022-08-16T02:18:01.187Z,49.90
2022-08-16T02:20:39.592Z,49.76
2022-08-16T02:23:10.567Z,50.20
2022-08-16T02:25:52.136Z,50.01
2022-08-16T02:28:24.714Z,50.04
2022-08-16T02:30:53.754Z,49.71
2022-08-16T02:33:24.411Z,49.96
2022-08-16T02:35:58.167Z,50.15
2022-08-16T02:38:31.584Z,49.98
2022-08-16T02:41:02.405Z,50.22
2022-08-16T02:43:36.963Z,49.99
2022-08-16T02:46:07.882Z,50.06
2022-08-16T02:48:39.058Z,50.17
2022-08-16T02:51:10.927Z,50.09
2022-08-16T02:53:44.978Z,50.18
2022-08-16T02:56:15.968Z,50.03
2022-08-16T02:58:50.725Z,50.04
2022-08-16T03:01:36.493Z,49.96
2022-08-16T03:04:41.291Z,50.16
2022-08-16T03:07:01.996Z,50.21
2022-08-16T03:09:44.567Z,50.04
2022-08-16T03:12:16.538Z,50.05
2022-08-16T03:14:47.716Z,50.24
2022-08-16T03:17:17.799Z,50.34
2022-08-16T03:19:48.196Z,50.26
2022-08-16T03:22:29.413Z,50.02
2022-08-16T03:25:09.106Z,50.09
2022-08-16T03:27:39.206Z,50.32
2022-08-16T03:30:17.470Z,50.19
2022-08-16T03:33:07.619Z,50.01
2022-08-16T03:35:42.036Z,50.42
2022-08-16T03:38:34.243Z,50.04
2022-08-16T03:41:25.660Z,50.16
2022-08-16T03:43:59.335Z,50.40
2022-08-16T03:46:47.282Z,50.33
2022-08-16T03:49:22.488Z,50.77
2022-08-16T03:51:52.312Z,50.37
2022-08-16T03:54:29.612Z,50.43
2022-08-16T03:56:59.001Z,50.41
2022-08-16T03:59:31.462Z,50.57
2022-08-16T04:02:07.261Z,50.40
2022-08-16T04:04:40.372Z,50.52
2022-08-16T04:07:08.885Z,50.64
2022-08-16T04:09:40.572Z,50.48
2022-08-16T04:12:53.904Z,50.44
2022-08-16T04:14:59.372Z,50.67
2022-08-16T04:17:28.064Z,50.64
2022-08-16T04:19:58.390Z,50.57
2022-08-16T04:22:28.203Z,50.71
2022-08-16T04:25:01.627Z,50.39
2022-08-16T04:27:34.575Z,50.64
2022-08-16T04:30:10.861Z,50.33
2022-08-16T04:32:49.211Z,50.47
2022-08-16T04:35:22.830Z,50.37
2022-08-16T04:37:53.907Z,50.49
2022-08-16T04:40:27.562Z,50.19
2022-08-16T04:42:57.507Z,50.28
2022-08-16T04:45:35.552Z,50.29
2022-08-16T04:48:10.399Z,50.40
2022-08-16T04:50:53.161Z,50.42
2022-08-16T04:53:28.584Z,50.50
2022-08-16T04:55:56.208Z,50.47
2022-08-16T04:58:45.011Z,50.52
2022-08-16T05:01:13.796Z,50.42
2022-08-16T05:04:00.994Z,50.62
2022-08-16T05:06:45.178Z,50.52
2022-08-16T05:09:26.454Z,50.46
2022-08-16T05:11:57.391Z,50.50
2022-08-16T05:14:45.333Z,50.83
2022-08-16T05:17:15.818Z,50.57
2022-08-16T05:19:46.808Z,50.66
2022-08-16T05:22:28.290Z,50.73
2022-08-16T05:24:57.621Z,50.75
2022-08-16T05:27:24.935Z,50.89
2022-08-16T05:29:59.314Z,50.71
2022-08-16T05:32:36.482Z,50.95
2022-08-16T05:35:15.581Z,50.67
2022-08-16T05:38:32.428Z,50.54
2022-08-16T05:41:00.208Z,50.69
2022-08-16T05:43:43.497Z,50.65
2022-08-16T05:46:29.781Z,50.47
2022-08-16T05:49:08.776Z,50.52
2022-08-16T05:51:41.484Z,50.53
2022-08-16T05:54:13.960Z,50.59
2022-08-16T05:56:42.943Z,50.82
2022-08-16T05:59:11.033Z,50.83
2022-08-16T06:01:40.402Z,50.76
2022-08-16T06:04:12.736Z,51.49
2022-08-16T06:06:55.903Z,51.03
2022-08-16T06:09:42.695Z,50.57
2022-08-16T06:12:26.819Z,50.75
2022-08-16T06:15:09.686Z,50.41
2022-08-16T06:17:41.498Z,50.33
2022-08-16T06:20:18.426Z,50.79
2022-08-16T06:22:58.658Z,50.84
2022-08-16T06:25:41.623Z,50.87
2022-08-16T06:28:17.234Z,51.19
2022-08-16T06:30:58.933Z,51.36
2022-08-16T06:33:29.393Z,51.40
2022-08-16T06:36:11.657Z,51.63
2022-08-16T06:38:55.878Z,51.53
2022-08-16T06:41:44.018Z,51.50
2022-08-16T06:44:24.398Z,51.51
2022-08-16T06:46:56.502Z,51.40
2022-08-16T06:49:25.034Z,51.39
2022-08-16T06:51:52.713Z,51.55
2022-08-16T06:54:27.602Z,51.87
2022-08-16T06:56:55.996Z,51.86
2022-08-16T06:59:26.019Z,51.70
2022-08-16T07:01:58.414Z,51.55
2022-08-16T07:04:32.791Z,52.14
2022-08-16T07:07:09.789Z,51.89
2022-08-16T07:09:39.137Z,52.01
2022-08-16T07:12:08.429Z,52.42
2022-08-16T07:14:41.053Z,52.25
2022-08-16T07:17:12.922Z,52.22
2022-08-16T07:20:29.170Z,52.45
2022-08-16T07:22:52.739Z,52.71
2022-08-16T07:25:40.624Z,52.66
2022-08-16T07:28:20.507Z,52.96
2022-08-16T07:30:53.003Z,53.02
2022-08-16T07:33:52.925Z,53.22
2022-08-16T07:36:29.002Z,52.92
2022-08-16T07:38:58.458Z,53.26
2022-08-16T07:41:28.529Z,53.12
2022-08-16T07:44:00.399Z,53.35
2022-08-16T07:46:37.773Z,53.43
2022-08-16T07:49:18.141Z,53.55
2022-08-16T07:51:46.374Z,53.43
2022-08-16T07:54:21.199Z,53.14
2022-08-16T07:57:01.836Z,53.27
2022-08-16T07:59:45.783Z,53.41
2022-08-16T08:02:20.275Z,53.14
2022-08-16T08:04:54.108Z,53.14
2022-08-16T08:07:22.285Z,52.96
2022-08-16T08:09:56.468Z,53.19
2022-08-16T08:12:31.325Z,52.94
2022-08-16T08:15:00.545Z,52.96
2022-08-16T08:18:49.921Z,52.85
2022-08-16T08:20:27.938Z,52.57
2022-08-16T08:23:00.614Z,52.77
2022-08-16T08:25:54.152Z,52.71
2022-08-16T08:28:20.009Z,52.22
2022-08-16T08:30:52.051Z,52.15
2022-08-16T08:33:29.179Z,52.38
2022-08-16T08:36:01.515Z,52.49
2022-08-16T08:38:45.110Z,52.30
2022-08-16T08:41:18.877Z,52.36
2022-08-16T08:43:50.763Z,52.36
2022-08-16T08:46:22.026Z,52.51
2022-08-16T08:48:59.185Z,52.26
2022-08-16T08:51:32.022Z,52.27
2022-08-16T08:54:09.169Z,52.34
2022-08-16T08:56:45.724Z,52.43
2022-08-16T08:59:40.903Z,52.35
2022-08-16T09:02:11.664Z,52.34
2022-08-16T09:04:47.375Z,52.49
2022-08-16T09:07:17.712Z,52.32
2022-08-16T09:09:47.757Z,52.28
2022-08-16T09:12:31.194Z,52.18
2022-08-16T09:15:08.962Z,52.38
2022-08-16T09:17:51.453Z,51.96
2022-08-16T09:20:20.556Z,52.16
2022-08-16T09:22:52.671Z,52.00
2022-08-16T09:25:34.291Z,52.02
2022-08-16T09:28:10.558Z,51.88
2022-08-16T09:30:48.328Z,52.53
2022-08-16T09:33:20.491Z,52.34
2022-08-16T09:35:53.314Z,52.11
2022-08-16T09:38:32.100Z,52.11
2022-08-16T09:41:06.062Z,52.35
2022-08-16T09:43:58.631Z,51.99
2022-08-16T09:46:48.768Z,52.06
2022-08-16T09:49:19.783Z,51.83
2022-08-16T09:51:53.596Z,51.67
2022-08-16T09:54:25.640Z,51.96
2022-08-16T09:57:01.282Z,52.01
2022-08-16T09:59:30.646Z,51.98
2022-08-16T10:01:58.320Z,52.09
2022-08-16T10:04:29.938Z,51.86
2022-08-16T10:09:54.080Z,52.02
2022-08-16T10:12:42.943Z,52.51
2022-08-16T10:15:17.282Z,51.90
2022-08-16T10:18:01.148Z,51.75
2022-08-16T10:20:36.703Z,52.06
2022-08-16T10:23:08.539Z,52.30
2022-08-16T10:27:00.649Z,52.03
2022-08-16T10:28:32.409Z,51.99
2022-08-16T10:31:11.704Z,52.22
2022-08-16T10:33:42.123Z,52.10
2022-08-16T10:36:37.839Z,52.30
2022-08-16T10:39:01.406Z,52.30
2022-08-16T10:41:29.755Z,52.38
2022-08-16T10:43:58.358Z,52.45
2022-08-16T10:46:40.083Z,52.02
2022-08-16T10:49:16.830Z,51.82
2022-08-16T10:52:03.290Z,51.64
2022-08-16T10:54:33.883Z,51.67
2022-08-16T10:57:20.888Z,51.79
2022-08-16T10:59:57.846Z,51.56
2022-08-16T11:02:58.930Z,51.19
2022-08-16T11:05:16.378Z,51.46
2022-08-16T11:07:52.513Z,51.20
2022-08-16T11:19:06.364Z,51.96
2022-08-16T11:24:40.039Z,52.12
2022-08-16T11:27:35.684Z,51.87
2022-08-16T11:29:57.514Z,51.90
2022-08-16T11:32:31.293Z,51.92
2022-08-16T11:35:14.327Z,51.68
2022-08-16T11:40:38.709Z,51.82
2022-08-16T11:43:06.736Z,51.31
2022-08-16T11:45:37.813Z,51.62
2022-08-16T11:48:05.749Z,51.84
2022-08-16T11:50:34.044Z,52.11
2022-08-16T11:53:03.454Z,51.89
2022-08-16T11:55:32.933Z,52.14
2022-08-16T11:58:02.429Z,52.05
2022-08-16T12:00:34.084Z,51.92
2022-08-16T12:04:28.696Z,51.66
2022-08-16T12:06:57.545Z,51.85
2022-08-16T12:09:29.340Z,51.82
2022-08-16T12:11:58.501Z,51.73
2022-08-16T12:14:35.199Z,51.89
2022-08-16T12:17:04.157Z,51.94
2022-08-16T12:19:33.477Z,52.34
2022-08-16T12:22:01.650Z,52.23
2022-08-16T12:24:34.582Z,52.10
2022-08-16T12:27:05.360Z,52.30
2022-08-16T12:29:35.821Z,52.13
2022-08-16T12:32:12.296Z,51.96
2022-08-16T12:34:53.126Z,52.16
2022-08-16T12:37:24.446Z,52.17
2022-08-16T12:39:56.097Z,52.28
2022-08-16T12:42:34.292Z,51.88
2022-08-16T12:45:07.404Z,51.80
2022-08-16T12:48:10.040Z,51.78
2022-08-16T12:50:41.664Z,51.78
2022-08-16T12:53:09.579Z,51.84
2022-08-16T12:55:42.212Z,51.58
2022-08-16T12:58:13.967Z,51.63
2022-08-16T13:01:01.702Z,51.59
2022-08-16T13:03:29.175Z,51.43
2022-08-16T13:06:00.746Z,50.24
2022-08-16T13:08:30.682Z,50.32
2022-08-16T13:10:59.098Z,50.81
2022-08-16T13:13:27.307Z,50.40
2022-08-16T13:16:04.957Z,50.39
2022-08-16T13:18:36.180Z,50.84
2022-08-16T13:21:06.572Z,50.62
2022-08-16T13:23:35.999Z,50.10
2022-08-16T13:26:04.482Z,50.04
2022-08-16T13:28:32.473Z,50.48
2022-08-16T13:31:00.385Z,50.35
2022-08-16T13:33:37.238Z,49.73
2022-08-16T13:36:16.699Z,49.88
2022-08-16T13:38:53.552Z,50.08
2022-08-16T13:41:21.852Z,49.56
2022-08-16T13:43:57.977Z,49.71
2022-08-16T13:46:28.916Z,49.30
2022-08-16T13:48:57.941Z,49.29
2022-08-16T13:51:29.243Z,49.19
2022-08-16T13:54:03.837Z,49.25
2022-08-16T13:56:38.198Z,48.87
2022-08-16T13:59:19.287Z,49.11
2022-08-16T14:01:55.283Z,48.78
2022-08-16T14:04:27.108Z,49.11
2022-08-16T14:06:57.237Z,49.29
2022-08-16T14:09:27.229Z,49.38
2022-08-16T14:11:57.348Z,48.85
2022-08-16T14:14:28.635Z,49.11
2022-08-16T14:17:01.676Z,48.72
2022-08-16T14:19:29.992Z,48.65
2022-08-16T14:22:13.655Z,48.78
2022-08-16T14:24:45.298Z,49.07
2022-08-16T14:27:21.281Z,48.45
2022-08-16T14:29:50.763Z,48.61
2022-08-16T14:32:27.114Z,48.61
2022-08-16T14:35:07.452Z,48.71
2022-08-16T14:37:36.037Z,48.94
2022-08-16T14:40:06.401Z,48.78
2022-08-16T14:42:33.937Z,48.97
2022-08-16T14:45:07.594Z,49.32
2022-08-16T14:47:38.777Z,49.47
2022-08-16T14:50:09.497Z,49.55
2022-08-16T14:52:55.228Z,50.03
2022-08-16T14:55:27.423Z,50.83
2022-08-16T14:57:55.648Z,48.70
2022-08-16T15:00:27.043Z,47.55
2022-08-16T15:03:02.837Z,46.87
2022-08-16T15:05:32.575Z,46.60
2022-08-16T15:07:59.931Z,46.10
2022-08-16T15:10:29.339Z,45.80
2022-08-16T15:13:01.162Z,45.19
2022-08-16T15:15:30.920Z,44.83
2022-08-16T15:18:01.483Z,44.75
2022-08-16T15:20:32.278Z,44.80
2022-08-16T15:23:02.094Z,44.27
2022-08-16T15:25:33.906Z,44.18
2022-08-16T15:28:05.372Z,43.63
2022-08-16T15:30:57.843Z,43.53
2022-08-16T15:33:25.618Z,43.16
2022-08-16T15:35:55.359Z,42.80
2022-08-16T15:38:57.299Z,42.67
2022-08-16T15:41:10.982Z,42.84
2022-08-16T15:43:40.841Z,42.58
2022-08-16T15:46:34.639Z,42.56
2022-08-16T15:49:03.878Z,42.66
2022-08-16T15:51:32.171Z,42.43
2022-08-16T15:54:20.949Z,42.57
2022-08-16T15:56:54.382Z,42.90
2022-08-16T15:59:27.189Z,43.15
2022-08-16T16:01:56.589Z,43.34
2022-08-16T16:04:28.528Z,43.73
2022-08-16T16:06:56.709Z,43.65
2022-08-16T16:09:36.609Z,43.90
2022-08-16T16:12:34.098Z,44.05
2022-08-16T16:14:54.217Z,44.14
2022-08-16T16:17:21.430Z,44.21
2022-08-16T16:19:49.791Z,44.28
2022-08-16T16:22:21.813Z,44.41
2022-08-16T16:24:52.707Z,44.55
2022-08-16T16:27:21.829Z,44.42
2022-08-16T16:29:50.902Z,44.46
2022-08-16T16:32:34.057Z,44.51
2022-08-16T16:35:06.056Z,44.64
2022-08-16T16:37:33.506Z,45.16
2022-08-16T16:40:01.506Z,44.95
2022-08-16T16:42:35.407Z,44.94
2022-08-16T16:45:10.553Z,44.93
2022-08-16T16:47:41.711Z,45.07
2022-08-16T16:50:10.262Z,45.51
2022-08-16T16:52:43.934Z,45.66
2022-08-16T16:55:14.779Z,45.47
2022-08-16T16:58:03.401Z,44.72
2022-08-16T17:00:38.052Z,44.70
2022-08-16T17:03:17.105Z,44.38
2022-08-16T17:05:57.114Z,44.19
2022-08-16T17:08:29.802Z,44.20
2022-08-16T17:10:57.721Z,44.08
2022-08-16T17:13:26.220Z,44.73
2022-08-16T17:15:54.216Z,45.11
2022-08-16T17:19:16.094Z,45.16
2022-08-16T17:21:11.341Z,45.65
2022-08-16T17:23:58.562Z,45.15
2022-08-16T17:26:30.218Z,44.77
2022-08-16T17:29:02.738Z,45.05
2022-08-16T17:31:43.201Z,45.85
2022-08-16T17:34:30.826Z,46.72
2022-08-16T17:37:04.994Z,46.98
2022-08-16T17:39:35.427Z,47.13
2022-08-16T17:42:25.277Z,47.35
2022-08-16T17:44:54.597Z,47.27
2022-08-16T17:47:22.763Z,46.88
2022-08-16T17:49:50.223Z,46.91
2022-08-16T17:52:18.265Z,47.26
2022-08-16T17:54:45.548Z,47.59
2022-08-16T17:57:13.544Z,47.76
2022-08-16T17:59:44.378Z,48.02
2022-08-16T18:02:42.302Z,48.28
2022-08-16T18:04:59.704Z,48.43
2022-08-16T18:07:27.276Z,47.77
2022-08-16T18:09:54.720Z,47.65
2022-08-16T18:12:44.583Z,48.06
2022-08-16T18:15:13.487Z,48.17
2022-08-16T18:17:43.960Z,47.78
2022-08-16T18:20:33.601Z,48.00
2022-08-16T18:23:08.169Z,48.04
2022-08-16T18:25:36.175Z,48.04
2022-08-16T18:28:04.277Z,48.19
2022-08-16T18:30:31.777Z,48.25
2022-08-16T18:32:59.105Z,48.53
2022-08-16T18:35:26.501Z,48.54
2022-08-16T18:37:53.969Z,48.60
2022-08-16T18:40:21.413Z,48.78
2022-08-16T18:43:05.115Z,48.69
2022-08-16T18:45:35.409Z,48.64
2022-08-16T18:48:06.133Z,48.76
2022-08-16T18:50:59.946Z,49.06
2022-08-16T18:53:25.009Z,48.91
2022-08-16T18:55:55.508Z,48.60
2022-08-16T18:58:24.022Z,48.83
2022-08-16T19:00:56.545Z,48.96
2022-08-16T19:03:32.428Z,48.81
2022-08-16T19:06:02.844Z,48.70
2022-08-16T19:08:31.662Z,48.72
2022-08-16T19:10:58.988Z,48.63
2022-08-16T19:13:28.837Z,48.32
2022-08-16T19:15:58.610Z,48.37
2022-08-16T19:18:27.727Z,48.38
2022-08-16T19:20:55.734Z,48.25
2022-08-16T19:23:25.599Z,48.62
2022-08-16T19:25:57.294Z,49.48
2022-08-16T19:28:58.111Z,51.54
2022-08-16T19:31:19.758Z,50.82
2022-08-16T19:33:54.223Z,52.97
2022-08-16T19:36:33.953Z,51.83
2022-08-16T19:39:12.173Z,50.54
2022-08-16T19:41:43.031Z,50.20
2022-08-16T19:44:11.005Z,50.51
2022-08-16T19:46:41.736Z,50.38
2022-08-16T19:49:09.245Z,50.39
2022-08-16T19:51:37.729Z,50.05
2022-08-16T19:54:05.564Z,50.00
2022-08-16T19:56:32.804Z,50.07
2022-08-16T19:59:18.828Z,49.64
2022-08-16T20:01:49.379Z,49.61
2022-08-16T20:04:16.807Z,49.80
2022-08-16T20:06:44.081Z,49.56
2022-08-16T20:09:15.342Z,49.27
2022-08-16T20:11:45.126Z,49.62
2022-08-16T20:14:24.854Z,49.45
2022-08-16T20:16:56.073Z,49.38
2022-08-16T20:19:25.186Z,49.23
2022-08-16T20:21:53.108Z,49.27
2022-08-16T20:24:34.230Z,49.23
2022-08-16T20:27:06.019Z,49.05
2022-08-16T20:29:34.051Z,49.14
2022-08-16T20:32:02.389Z,49.36
2022-08-16T20:34:29.697Z,49.61
2022-08-16T20:36:57.076Z,49.42
2022-08-16T20:39:24.597Z,49.42
2022-08-16T20:41:52.013Z,49.51
2022-08-16T20:44:23.038Z,49.66
2022-08-16T20:46:53.227Z,49.43
2022-08-16T20:49:20.626Z,49.53
2022-08-16T20:51:50.825Z,49.72
2022-08-16T20:54:19.673Z,49.54
2022-08-16T20:56:48.644Z,49.81
2022-08-16T20:59:16.295Z,50.20
2022-08-16T21:01:46.244Z,50.32
2022-08-16T21:04:22.230Z,50.00
2022-08-16T21:06:54.385Z,49.54
2022-08-16T21:09:24.130Z,49.81
2022-08-16T21:12:00.839Z,50.31
2022-08-16T21:14:29.772Z,50.46
2022-08-16T21:16:57.081Z,51.48
2022-08-16T21:19:24.687Z,54.46
2022-08-16T21:21:52.260Z,56.00
2022-08-16T21:24:19.593Z,56.03
2022-08-16T21:26:54.008Z,56.86
2022-08-16T21:29:24.965Z,56.39
2022-08-16T21:31:54.702Z,56.83
2022-08-16T21:34:21.980Z,56.80
2022-08-16T21:36:49.871Z,57.62
2022-08-16T21:39:17.239Z,57.00
2022-08-16T21:41:44.554Z,57.27
2022-08-16T21:44:11.845Z,57.76
2022-08-16T21:46:39.157Z,56.70
2022-08-16T21:49:06.445Z,56.40
2022-08-16T21:51:34.623Z,55.61
2022-08-16T21:54:02.354Z,56.47
2022-08-16T21:56:29.948Z,56.06
2022-08-16T21:58:57.328Z,56.08
2022-08-16T22:01:24.866Z,57.75
2022-08-16T22:04:03.479Z,58.30
2022-08-16T22:06:41.487Z,58.57
2022-08-16T22:09:11.667Z,58.69
2022-08-16T22:11:39.222Z,58.37
2022-08-16T22:14:06.598Z,57.66
2022-08-16T22:16:37.454Z,58.10
2022-08-16T22:19:06.137Z,57.71
2022-08-16T22:21:35.165Z,57.19
2022-08-16T22:24:02.728Z,57.75
2022-08-16T22:26:32.936Z,58.36
2022-08-16T22:29:06.560Z,59.00
2022-08-16T22:31:35.386Z,59.16
2022-08-16T22:34:03.160Z,58.91
2022-08-16T22:36:31.561Z,59.25
2022-08-16T22:39:01.958Z,59.17
2022-08-16T22:41:32.047Z,58.99
2022-08-16T22:44:01.281Z,58.99
2022-08-16T22:46:30.331Z,58.99
2022-08-16T22:48:57.908Z,58.81
2022-08-16T22:51:26.964Z,59.63
2022-08-16T22:53:55.619Z,59.50
2022-08-16T22:56:23.812Z,59.32
2022-08-16T22:58:51.834Z,59.12
2022-08-16T23:01:21.852Z,59.20
2022-08-16T23:03:49.335Z,59.26
2022-08-16T23:06:17.885Z,58.92
2022-08-16T23:08:45.282Z,59.11
2022-08-16T23:11:21.203Z,59.19
2022-08-16T23:13:53.424Z,59.46
2022-08-16T23:16:22.590Z,59.16
2022-08-16T23:18:53.365Z,57.88
2022-08-16T23:21:20.971Z,57.77
2022-08-16T23:23:49.268Z,57.18
2022-08-16T23:26:46.029Z,57.20
2022-08-16T23:29:06.249Z,56.95
2022-08-16T23:31:43.259Z,57.00
2022-08-16T23:34:10.921Z,56.57
2022-08-16T23:36:38.233Z,56.49
2022-08-16T23:39:05.576Z,56.24
2022-08-16T23:41:34.895Z,56.09
2022-08-16T23:44:02.224Z,55.88
2022-08-16T23:46:49.776Z,55.97
2022-08-16T23:49:59.293Z,56.06
2022-08-16T23:52:08.930Z,55.87
2022-08-16T23:54:36.685Z,55.84
2022-08-16T23:57:04.396Z,55.92
2022-08-16T23:59:48.534Z,55.68
